Time;durP1;ratioP1;P1;durP2;ratioP2;P2;SDS_P1;SDS_P2;PMS_P1;PMS_P2;Temp;Humidity;BMP_temperature;BMP_pressure;BME280_temperature;BME280_humidity;BME280_pressure;Samples;Min_cycle;Max_cycle;Signal;HPM_P1;HPM_P2
2023/06/11 00:01:14;;;;;;;14.45;11.30;;;461.70;2380.80;;;;;;5054053;28;20025;-80
2023/06/11 00:03:41;;;;;;;15.27;10.45;;;461.60;2380.80;;;;;;5054055;28;20033;-83
2023/06/11 00:06:07;;;;;;;15.52;11.18;;;461.60;2380.80;;;;;;5054305;28;20052;-83
2023/06/11 00:08:33;;;;;;;13.23;10.25;;;461.50;2380.80;;;;;;5054262;28;20385;-83
2023/06/11 00:10:59;;;;;;;13.30;11.13;;;461.50;2380.80;;;;;;5054989;28;20396;-82
2023/06/11 00:13:27;;;;;;;13.85;10.68;;;461.50;2380.80;;;;;;5055418;28;20113;-83
2023/06/11 00:15:53;;;;;;;16.30;10.90;;;461.50;2380.80;;;;;;5054216;28;20058;-82
2023/06/11 00:18:19;;;;;;;16.33;10.55;;;461.50;2380.80;;;;;;5053806;28;20133;-83
2023/06/11 00:20:46;;;;;;;11.75;10.18;;;461.40;2380.80;;;;;;5054037;28;20025;-81
2023/06/11 00:23:12;;;;;;;13.65;10.32;;;461.50;2380.80;;;;;;5053934;28;20040;-83
2023/06/11 00:25:37;;;;;;;17.25;11.63;;;461.50;2380.80;;;;;;5053926;28;20461;-85
2023/06/11 00:28:03;;;;;;;14.07;10.80;;;461.50;2380.80;;;;;;5053724;28;20027;-82
2023/06/11 00:30:29;;;;;;;13.55;10.57;;;461.50;2380.80;;;;;;5053687;28;20028;-83
2023/06/11 00:32:55;;;;;;;14.60;11.48;;;461.50;2380.80;;;;;;5064158;28;20020;-82
2023/06/11 00:35:21;;;;;;;15.90;11.30;;;461.50;2380.80;;;;;;5074261;28;20029;-85
2023/06/11 00:37:49;;;;;;;15.40;11.32;;;461.50;2380.80;;;;;;5053452;28;20033;-83
2023/06/11 00:40:16;;;;;;;13.77;11.07;;;461.50;2380.80;;;;;;5053496;28;20175;-83
2023/06/11 00:42:43;;;;;;;12.98;10.57;;;461.30;2380.80;;;;;;5053648;28;20483;-83
2023/06/11 00:45:09;;;;;;;14.75;11.02;;;461.30;2380.80;;;;;;5054113;28;20017;-83
2023/06/11 00:47:36;;;;;;;15.60;11.27;;;461.40;2380.80;;;;;;5054446;28;20028;-83
2023/06/11 00:50:04;;;;;;;17.00;11.55;;;461.40;2380.80;;;;;;5053283;28;20029;-85
2023/06/11 00:52:31;;;;;;;15.98;11.43;;;461.40;2380.80;;;;;;5053061;28;20029;-80
2023/06/11 00:54:57;;;;;;;12.45;10.45;;;461.40;2380.80;;;;;;5036818;28;20056;-83
2023/06/11 00:57:24;;;;;;;15.07;10.95;;;461.50;2380.80;;;;;;5053014;28;20063;-83
2023/06/11 00:59:53;;;;;;;15.45;11.93;;;461.30;2380.80;;;;;;5052541;28;20468;-83
2023/06/11 01:02:40;;;;;;;12.90;10.93;;;461.20;2380.80;;;;;;5053113;28;20465;-82
2023/06/11 01:05:08;;;;;;;12.45;10.10;;;461.20;2380.80;;;;;;5054043;28;20021;-81
2023/06/11 01:07:37;;;;;;;16.90;10.55;;;461.20;2380.80;;;;;;5053032;28;20036;-84
2023/06/11 01:10:03;;;;;;;14.07;10.15;;;461.20;2380.80;;;;;;5053885;28;20057;-83
2023/06/11 01:12:29;;;;;;;12.98;10.40;;;461.10;2380.80;;;;;;5052827;28;20487;-83
2023/06/11 01:14:54;;;;;;;12.13;10.30;;;460.90;2380.80;;;;;;5052894;28;20028;-83
2023/06/11 01:17:46;;;;;;;14.38;10.77;;;461.00;2380.80;;;;;;5052946;28;20388;-83
2023/06/11 01:20:19;;;;;;;13.07;10.02;;;461.00;2380.80;;;;;;5052560;28;20037;-82
2023/06/11 01:23:17;;;;;;;14.93;10.48;;;460.90;2380.80;;;;;;5052860;28;20063;-82
2023/06/11 01:26:01;;;;;;;15.48;10.95;;;461.00;2380.80;;;;;;5042033;28;20037;-83
2023/06/11 01:28:33;;;;;;;13.05;10.35;;;461.00;2380.80;;;;;;5052793;28;20461;-84
2023/06/11 01:31:03;;;;;;;16.05;10.68;;;461.00;2380.80;;;;;;5053776;28;20025;-82
2023/06/11 01:33:35;;;;;;;12.95;9.88;;;460.90;2380.80;;;;;;5052300;28;20033;-82
2023/06/11 01:36:01;;;;;;;12.43;10.47;;;460.90;2380.80;;;;;;5054471;28;20025;-82
2023/06/11 01:38:30;;;;;;;15.95;10.23;;;460.90;2380.80;;;;;;5052715;28;20289;-83
2023/06/11 01:40:58;;;;;;;13.82;10.23;;;461.50;2380.80;;;;;;5053599;28;20029;-82
2023/06/11 01:43:25;;;;;;;14.90;10.70;;;461.00;2380.80;;;;;;5052496;28;20025;-82
2023/06/11 01:45:51;;;;;;;13.30;10.95;;;460.90;2380.80;;;;;;5052373;28;20476;-83
2023/06/11 01:48:17;;;;;;;16.13;11.10;;;460.90;2380.80;;;;;;5052158;28;20037;-82
2023/06/11 01:50:43;;;;;;;13.27;10.70;;;460.90;2380.80;;;;;;5053737;28;20017;-83
2023/06/11 01:53:10;;;;;;;14.30;11.20;;;460.90;2380.80;;;;;;5052576;28;20029;-82
2023/06/11 01:55:36;;;;;;;18.33;11.90;;;460.90;2380.80;;;;;;5052119;28;20025;-82
2023/06/11 01:58:02;;;;;;;14.23;10.98;;;460.90;2380.80;;;;;;5052458;28;20025;-82
2023/06/11 02:00:28;;;;;;;14.77;10.38;;;461.00;2380.80;;;;;;5052521;28;20032;-82
2023/06/11 02:02:54;;;;;;;15.25;11.70;;;461.00;2380.80;;;;;;5052168;28;20025;-83
2023/06/11 02:05:20;;;;;;;15.85;10.70;;;461.00;2380.80;;;;;;5052187;28;20131;-83
2023/06/11 02:07:45;;;;;;;16.35;11.55;;;460.90;2380.80;;;;;;5053718;28;20075;-82
2023/06/11 02:10:11;;;;;;;13.20;11.35;;;460.90;2380.80;;;;;;5052311;28;20098;-82
2023/06/11 02:12:37;;;;;;;15.60;10.27;;;460.80;2380.80;;;;;;5055105;28;20021;-84
2023/06/11 02:15:05;;;;;;;19.60;11.02;;;460.90;2380.80;;;;;;5056194;28;20099;-81
2023/06/11 02:17:31;;;;;;;15.82;11.85;;;460.80;2380.80;;;;;;5057388;28;20044;-83
2023/06/11 02:19:57;;;;;;;14.57;11.30;;;436.10;2355.20;;;;;;5056243;28;20071;-82
2023/06/11 02:22:23;;;;;;;14.07;10.95;;;436.10;2355.20;;;;;;5055995;28;20025;-81
2023/06/11 02:24:49;;;;;;;15.25;11.00;;;436.10;2355.20;;;;;;5056496;28;20029;-82
2023/06/11 02:27:15;;;;;;;14.43;10.52;;;436.10;2355.20;;;;;;5056173;28;20036;-82
2023/06/11 02:29:41;;;;;;;13.38;10.25;;;436.10;2355.20;;;;;;5055791;28;20111;-83
2023/06/11 02:32:07;;;;;;;12.40;10.80;;;436.10;2355.20;;;;;;5055826;28;20358;-83
2023/06/11 02:34:33;;;;;;;13.63;10.27;;;435.90;2355.20;;;;;;5056009;28;20516;-83
2023/06/11 02:36:59;;;;;;;18.10;11.73;;;435.90;2355.20;;;;;;5056986;28;20155;-81
2023/06/11 02:39:25;;;;;;;13.90;11.18;;;435.90;2355.20;;;;;;5054095;28;20041;-83
2023/06/11 02:41:50;;;;;;;13.10;10.93;;;435.90;2355.20;;;;;;5055740;28;20021;-84
2023/06/11 02:44:16;;;;;;;21.33;11.90;;;435.90;2355.20;;;;;;5055560;28;20022;-84
2023/06/11 02:46:42;;;;;;;14.20;11.25;;;435.90;2355.20;;;;;;5048170;28;20033;-84
2023/06/11 02:49:08;;;;;;;17.52;11.80;;;435.90;2355.20;;;;;;5055560;28;20431;-83
2023/06/11 02:51:33;;;;;;;14.43;11.30;;;435.90;2355.20;;;;;;5054899;28;20372;-83
2023/06/11 02:53:59;;;;;;;16.20;10.35;;;435.90;2355.20;;;;;;5056496;28;20096;-82
2023/06/11 02:56:26;;;;;;;13.73;11.55;;;436.10;2355.20;;;;;;5056621;28;20025;-83
2023/06/11 02:58:52;;;;;;;16.67;11.95;;;435.90;2355.20;;;;;;5055182;28;20041;-83
2023/06/11 03:01:17;;;;;;;19.23;11.80;;;436.10;2355.20;;;;;;5055186;28;20528;-82
2023/06/11 03:03:43;;;;;;;17.38;11.57;;;436.10;2355.20;;;;;;5055412;28;20120;-82
2023/06/11 03:06:09;;;;;;;19.70;12.38;;;435.80;2355.20;;;;;;5054531;28;20048;-83
2023/06/11 03:08:35;;;;;;;14.65;11.23;;;435.80;2355.20;;;;;;5055279;28;20033;-82
2023/06/11 03:11:01;;;;;;;16.00;11.45;;;435.90;2355.20;;;;;;5055296;28;20029;-82
2023/06/11 03:13:26;;;;;;;15.52;11.48;;;435.90;2355.20;;;;;;5055042;28;20025;-83
2023/06/11 03:15:52;;;;;;;14.05;10.73;;;435.80;2355.20;;;;;;5055094;28;20032;-82
2023/06/11 03:18:18;;;;;;;19.40;12.50;;;435.90;2355.20;;;;;;5056055;28;20036;-82
2023/06/11 03:20:44;;;;;;;15.85;11.85;;;436.00;2355.20;;;;;;5054939;28;20029;-82
2023/06/11 03:23:10;;;;;;;20.30;12.70;;;436.10;2355.20;;;;;;5055120;28;20037;-83
2023/06/11 03:25:36;;;;;;;16.60;11.75;;;435.80;2355.20;;;;;;5036106;28;20038;-83
2023/06/11 03:28:02;;;;;;;16.55;11.88;;;435.80;2355.20;;;;;;5034735;28;20044;-85
2023/06/11 03:30:28;;;;;;;15.88;11.65;;;435.60;2355.20;;;;;;5035233;28;20029;-83
2023/06/11 03:32:54;;;;;;;20.58;13.65;;;435.80;2355.20;;;;;;5034477;28;20072;-83
2023/06/11 03:35:20;;;;;;;30.70;13.48;;;435.70;2355.20;;;;;;5036170;28;20064;-83
2023/06/11 03:37:46;;;;;;;20.55;12.18;;;435.80;2355.20;;;;;;5034939;28;20022;-81
2023/06/11 03:40:12;;;;;;;17.27;11.60;;;435.90;2355.20;;;;;;5034477;28;20107;-82
2023/06/11 03:42:37;;;;;;;20.98;12.57;;;435.90;2355.20;;;;;;5034742;28;20456;-84
2023/06/11 03:45:03;;;;;;;15.63;11.60;;;435.80;2355.20;;;;;;5035644;28;20075;-83
2023/06/11 03:47:29;;;;;;;20.50;11.70;;;435.90;2355.20;;;;;;5035826;28;20026;-82
2023/06/11 03:49:55;;;;;;;14.43;11.70;;;436.00;2355.20;;;;;;5034797;28;20475;-83
2023/06/11 03:52:21;;;;;;;14.35;11.85;;;436.10;2355.20;;;;;;5034766;28;20025;-83
2023/06/11 03:54:47;;;;;;;15.18;11.63;;;435.90;2355.20;;;;;;5035726;28;20420;-82
2023/06/11 03:57:13;;;;;;;18.90;12.82;;;436.10;2355.20;;;;;;5034725;28;20021;-83
2023/06/11 03:59:39;;;;;;;14.63;11.77;;;460.80;2380.80;;;;;;5035867;28;20473;-83
2023/06/11 04:02:05;;;;;;;14.68;11.13;;;460.80;2380.80;;;;;;5042410;28;20029;-82
2023/06/11 04:04:32;;;;;;;16.40;12.90;;;436.10;2355.20;;;;;;5054156;28;20032;-83
2023/06/11 04:06:58;;;;;;;14.68;11.93;;;436.10;2355.20;;;;;;5054367;28;20068;-84
2023/06/11 04:09:24;;;;;;;14.65;11.82;;;436.10;2355.20;;;;;;5054106;28;20025;-82
2023/06/11 04:11:50;;;;;;;13.82;10.93;;;460.80;2380.80;;;;;;5055550;28;20021;-83
2023/06/11 04:14:16;;;;;;;17.83;11.02;;;460.80;2380.80;;;;;;5055298;28;20031;-84
2023/06/11 04:16:42;;;;;;;14.40;11.07;;;436.10;2355.20;;;;;;5054307;28;20029;-83
2023/06/11 04:19:08;;;;;;;15.85;11.02;;;436.10;2355.20;;;;;;5054221;28;20033;-82
2023/06/11 04:21:34;;;;;;;15.93;10.75;;;460.80;2380.80;;;;;;5055172;28;20032;-83
2023/06/11 04:24:00;;;;;;;15.88;11.93;;;460.80;2380.80;;;;;;5054572;28;20028;-83
2023/06/11 04:26:26;;;;;;;14.52;10.38;;;460.80;2380.80;;;;;;5060741;28;20020;-82
2023/06/11 04:28:52;;;;;;;14.60;10.20;;;460.90;2380.80;;;;;;5079230;28;20013;-84
2023/06/11 04:31:19;;;;;;;14.30;11.18;;;461.00;2380.80;;;;;;5059485;28;20037;-83
2023/06/11 04:33:46;;;;;;;15.82;11.82;;;460.90;2380.80;;;;;;5053758;28;20483;-83
2023/06/11 04:36:11;;;;;;;12.57;10.52;;;436.10;2355.20;;;;;;5053470;28;20025;-83
2023/06/11 04:38:44;;;;;;;14.60;11.82;;;460.80;2380.80;;;;;;5053394;28;20091;-83
2023/06/11 04:41:11;;;;;;;15.27;11.40;;;460.80;2380.80;;;;;;5053619;28;20067;-84
2023/06/11 04:43:37;;;;;;;15.93;10.88;;;460.80;2380.80;;;;;;5052977;28;20029;-83
2023/06/11 04:46:04;;;;;;;17.00;11.18;;;436.10;2355.20;;;;;;5053501;28;20025;-84
2023/06/11 04:48:34;;;;;;;14.27;10.65;;;436.10;2355.20;;;;;;5053398;28;20040;-84
2023/06/11 04:51:01;;;;;;;17.77;12.68;;;460.80;2380.80;;;;;;5054655;28;20059;-84
2023/06/11 04:53:30;;;;;;;18.10;11.85;;;436.10;2355.20;;;;;;5053671;28;20025;-84
2023/06/11 04:55:58;;;;;;;16.63;11.63;;;436.10;2355.20;;;;;;5053358;28;20036;-83
2023/06/11 04:58:29;;;;;;;16.80;11.60;;;460.80;2380.80;;;;;;5053127;28;20032;-83
2023/06/11 05:00:58;;;;;;;15.70;11.85;;;460.90;2380.80;;;;;;5053313;28;20048;-84
2023/06/11 05:03:26;;;;;;;15.18;10.73;;;461.00;2380.80;;;;;;5053052;28;20033;-84
2023/06/11 05:05:53;;;;;;;11.98;10.57;;;461.00;2380.80;;;;;;5054099;28;20079;-84
2023/06/11 05:08:21;;;;;;;13.95;11.35;;;461.00;2380.80;;;;;;5053075;28;20025;-84
2023/06/11 05:10:47;;;;;;;18.38;12.50;;;461.10;2380.80;;;;;;5052901;28;20080;-83
2023/06/11 05:13:14;;;;;;;15.95;11.60;;;461.10;2380.80;;;;;;5054478;28;20025;-83
2023/06/11 05:15:40;;;;;;;13.27;11.88;;;461.30;2380.80;;;;;;5052953;28;20025;-83
2023/06/11 05:18:06;;;;;;;18.05;13.40;;;461.30;2380.80;;;;;;5053025;28;20021;-83
2023/06/11 05:20:32;;;;;;;18.10;14.15;;;461.40;2380.80;;;;;;5053216;28;20113;-83
2023/06/11 05:22:59;;;;;;;17.20;12.93;;;461.40;2380.80;;;;;;5052808;28;20032;-83
2023/06/11 05:25:28;;;;;;;15.05;11.98;;;461.50;2380.80;;;;;;5052838;28;20021;-84
2023/06/11 05:27:57;;;;;;;14.45;11.57;;;461.50;2380.80;;;;;;5053034;28;20037;-82
2023/06/11 05:30:25;;;;;;;17.70;12.80;;;461.60;2380.80;;;;;;5052857;28;20029;-83
2023/06/11 05:32:55;;;;;;;15.70;11.65;;;461.70;2380.80;;;;;;5053770;28;20021;-83
2023/06/11 05:35:21;;;;;;;15.93;12.20;;;486.40;2380.80;;;;;;5052707;28;20020;-83
2023/06/11 05:37:47;;;;;;;15.43;11.70;;;486.50;2380.80;;;;;;5054014;28;20523;-84
2023/06/11 05:40:13;;;;;;;15.70;13.10;;;486.50;2380.80;;;;;;5053871;28;20123;-83
2023/06/11 05:42:39;;;;;;;18.10;12.10;;;486.50;2380.80;;;;;;5053844;28;20025;-83
2023/06/11 05:45:06;;;;;;;17.08;11.45;;;486.70;2380.80;;;;;;5052508;28;20083;-82
2023/06/11 05:47:35;;;;;;;15.38;11.57;;;486.70;2380.80;;;;;;5053180;28;20342;-82
2023/06/11 05:50:01;;;;;;;14.05;10.88;;;487.00;2380.80;;;;;;5053697;28;20036;-84
2023/06/11 05:52:27;;;;;;;12.90;11.60;;;486.80;2380.80;;;;;;5052618;28;20032;-84
2023/06/11 05:54:53;;;;;;;14.73;12.07;;;486.70;2380.80;;;;;;5052735;28;20021;-83
2023/06/11 05:57:22;;;;;;;15.82;12.05;;;486.90;2380.80;;;;;;5052856;28;20094;-83
2023/06/11 05:59:49;;;;;;;14.60;11.57;;;487.10;2380.80;;;;;;5053288;28;20082;-83
2023/06/11 06:02:15;;;;;;;14.10;12.05;;;487.00;2380.80;;;;;;5052607;28;20461;-84
2023/06/11 06:04:41;;;;;;;16.65;12.15;;;487.10;2380.80;;;;;;5052546;28;20170;-82
2023/06/11 06:07:07;;;;;;;14.55;12.00;;;487.20;2380.80;;;;;;5052060;28;20080;-82
2023/06/11 06:09:34;;;;;;;13.35;11.77;;;512.00;2380.80;;;;;;5052548;28;20101;-84
2023/06/11 06:12:00;;;;;;;15.30;10.55;;;512.20;2380.80;;;;;;5052676;28;20032;-85
2023/06/11 06:14:26;;;;;;;12.82;11.15;;;512.30;2380.80;;;;;;5052487;28;20473;-85
2023/06/11 06:16:52;;;;;;;16.55;11.52;;;512.50;2380.80;;;;;;5053616;28;20387;-84
2023/06/11 06:19:18;;;;;;;12.65;11.35;;;512.60;2380.80;;;;;;5053724;28;20111;-85
2023/06/11 06:21:43;;;;;;;13.48;12.02;;;512.60;2380.80;;;;;;5052573;28;20116;-84
2023/06/11 06:24:13;;;;;;;12.02;10.80;;;512.90;2380.80;;;;;;5052676;28;20025;-84
2023/06/11 06:26:40;;;;;;;13.95;11.18;;;512.90;2380.80;;;;;;5052478;28;20021;-84
2023/06/11 06:29:12;;;;;;;13.77;11.60;;;537.60;2406.40;;;;;;5052119;28;20025;-82
2023/06/11 06:31:40;;;;;;;15.65;10.88;;;537.60;2406.40;;;;;;5052455;28;20083;-82
2023/06/11 06:34:07;;;;;;;13.25;11.68;;;537.90;2406.40;;;;;;5052361;28;20436;-83
2023/06/11 06:36:33;;;;;;;14.63;10.90;;;537.80;2406.40;;;;;;5052754;28;20032;-83
2023/06/11 06:39:00;;;;;;;12.15;10.43;;;537.80;2406.40;;;;;;5041612;28;20087;-83
2023/06/11 06:41:26;;;;;;;13.70;10.60;;;538.00;2406.40;;;;;;5032605;28;20117;-84
2023/06/11 06:43:52;;;;;;;11.85;10.63;;;538.10;2406.40;;;;;;5032833;28;20036;-83
2023/06/11 06:46:17;;;;;;;13.43;10.32;;;538.20;2406.40;;;;;;5032578;28;20394;-85
2023/06/11 06:48:43;;;;;;;11.85;10.20;;;538.40;2406.40;;;;;;5032133;28;20060;-81
2023/06/11 06:51:09;;;;;;;12.15;10.60;;;538.40;2406.40;;;;;;5033154;28;20025;-80
2023/06/11 06:53:35;;;;;;;11.77;10.10;;;538.40;2406.40;;;;;;5032968;28;20104;-81
2023/06/11 06:56:02;;;;;;;12.18;9.68;;;538.40;2406.40;;;;;;5033142;28;20030;-83
2023/06/11 06:58:28;;;;;;;12.48;10.32;;;563.20;2432.00;;;;;;5034179;28;20040;-82
2023/06/11 07:00:54;;;;;;;11.32;9.15;;;563.20;2432.00;;;;;;5036722;28;20017;-81
2023/06/11 07:03:21;;;;;;;12.05;9.18;;;563.40;2432.00;;;;;;5034911;28;20033;-82
2023/06/11 07:05:47;;;;;;;10.05;9.00;;;563.60;2432.00;;;;;;5038535;28;20079;-80
2023/06/11 07:08:13;;;;;;;10.20;8.20;;;563.80;2432.00;;;;;;5055192;28;20082;-80
2023/06/11 07:10:49;;;;;;;10.43;8.80;;;563.80;2432.00;;;;;;5055698;28;20100;-80
2023/06/11 07:13:15;;;;;;;9.57;7.95;;;564.00;2432.00;;;;;;5055154;28;20021;-79
2023/06/11 07:15:41;;;;;;;11.95;8.63;;;588.80;2432.00;;;;;;5054708;28;20381;-81
2023/06/11 07:18:08;;;;;;;10.18;8.15;;;589.10;2432.00;;;;;;5056020;28;20029;-82
2023/06/11 07:20:34;;;;;;;11.93;8.70;;;589.30;2432.00;;;;;;5054664;28;20041;-82
2023/06/11 07:23:00;;;;;;;9.70;8.27;;;589.10;2432.00;;;;;;5054778;28;20059;-84
2023/06/11 07:25:30;;;;;;;12.75;9.10;;;589.00;2432.00;;;;;;5054635;28;20052;-81
2023/06/11 07:28:01;;;;;;;12.02;9.45;;;589.30;2432.00;;;;;;5055999;28;20032;-82
2023/06/11 07:30:27;;;;;;;13.40;9.25;;;589.40;2432.00;;;;;;5054527;28;20033;-82
2023/06/11 07:32:53;;;;;;;11.57;9.40;;;589.60;2432.00;;;;;;5055991;28;20053;-82
2023/06/11 07:35:23;;;;;;;11.75;9.63;;;589.70;2432.00;;;;;;5054650;28;20074;-81
2023/06/11 07:37:49;;;;;;;11.00;9.60;;;614.50;2432.00;;;;;;5055803;28;20479;-83
2023/06/11 07:40:15;;;;;;;10.60;9.50;;;614.50;2432.00;;;;;;5054484;28;20029;-83
2023/06/11 07:42:45;;;;;;;10.23;8.68;;;614.50;2432.00;;;;;;5054497;28;20025;-82
2023/06/11 07:45:12;;;;;;;12.60;9.73;;;614.50;2432.00;;;;;;5055566;28;20027;-83
2023/06/11 07:47:38;;;;;;;13.52;10.27;;;614.40;2432.00;;;;;;5054476;28;20119;-82
2023/06/11 07:50:05;;;;;;;10.25;9.25;;;614.60;2432.00;;;;;;5054466;28;20040;-82
2023/06/11 07:52:31;;;;;;;12.27;10.57;;;614.50;2432.00;;;;;;5054269;28;20029;-82
2023/06/11 07:54:57;;;;;;;11.80;10.13;;;614.60;2432.00;;;;;;5054248;28;20086;-82
2023/06/11 07:57:23;;;;;;;10.32;9.13;;;614.80;2432.00;;;;;;5054236;28;20025;-82
2023/06/11 07:59:49;;;;;;;10.45;8.98;;;614.70;2432.00;;;;;;5053912;28;20087;-82
2023/06/11 08:02:15;;;;;;;14.65;9.43;;;614.70;2432.00;;;;;;5054148;28;20411;-82
2023/06/11 08:04:41;;;;;;;10.18;8.85;;;615.00;2432.00;;;;;;5053839;28;20033;-83
2023/06/11 08:07:07;;;;;;;12.65;9.27;;;615.20;2432.00;;;;;;5053802;28;20121;-79
2023/06/11 08:09:37;;;;;;;10.80;9.70;;;640.10;2432.00;;;;;;5058979;28;20037;-80
2023/06/11 08:12:07;;;;;;;11.88;9.50;;;640.30;2432.00;;;;;;5058790;28;20021;-80
2023/06/11 08:14:34;;;;;;;10.35;9.25;;;640.30;2432.00;;;;;;5058671;28;20025;-80
2023/06/11 08:17:00;;;;;;;11.77;9.63;;;640.00;2432.00;;;;;;5056124;28;20055;-80
2023/06/11 08:19:26;;;;;;;9.75;8.75;;;640.30;2432.00;;;;;;5074140;28;20029;-80
2023/06/11 08:21:54;;;;;;;13.73;12.27;;;640.50;2432.00;;;;;;5071737;28;20025;-81
2023/06/11 08:24:21;;;;;;;13.57;12.13;;;640.60;2432.00;;;;;;5054734;28;20033;-80
2023/06/11 08:26:48;;;;;;;12.30;9.10;;;640.90;2432.00;;;;;;5057668;28;20120;-79
2023/06/11 08:29:14;;;;;;;10.90;8.13;;;;;;;;;;5073539;28;20029;-79
2023/06/11 08:31:40;;;;;;;9.60;8.05;;;665.80;2432.00;;;;;;5064365;28;20036;-81
2023/06/11 08:34:06;;;;;;;11.00;8.30;;;665.90;2432.00;;;;;;5071229;28;20029;-81
2023/06/11 08:36:32;;;;;;;9.32;8.43;;;666.00;2432.00;;;;;;5070352;28;20025;-81
2023/06/11 08:38:58;;;;;;;10.23;7.93;;;666.00;2432.00;;;;;;5070180;28;20033;-80
2023/06/11 08:41:23;;;;;;;8.77;7.90;;;666.00;2432.00;;;;;;5069763;28;20056;-83
2023/06/11 08:43:50;;;;;;;12.00;8.52;;;666.30;2432.00;;;;;;5070144;28;20028;-83
2023/06/11 08:46:16;;;;;;;11.20;7.20;;;666.40;2432.00;;;;;;5069195;28;20029;-81
2023/06/11 08:48:43;;;;;;;8.00;7.15;;;666.10;2432.00;;;;;;5052315;28;20039;-81
2023/06/11 08:51:11;;;;;;;7.18;6.45;;;665.70;2432.00;;;;;;5053342;28;20040;-82
2023/06/11 08:53:38;;;;;;;8.45;7.60;;;666.00;2432.00;;;;;;5053233;28;20094;-82
2023/06/11 08:56:07;;;;;;;12.40;9.23;;;665.90;2432.00;;;;;;5051957;28;20025;-80
2023/06/11 08:58:35;;;;;;;10.32;8.70;;;666.00;2432.00;;;;;;5054528;28;20028;-81
2023/06/11 09:01:11;;;;;;;8.65;7.75;;;665.70;2432.00;;;;;;5053070;28;20040;-80
2023/06/11 09:03:38;;;;;;;8.85;7.95;;;665.90;2432.00;;;;;;5053196;28;20036;-81
2023/06/11 09:06:04;;;;;;;9.80;8.10;;;665.70;2432.00;;;;;;5053085;28;20049;-83
2023/06/11 09:08:30;;;;;;;9.93;7.78;;;640.90;2432.00;;;;;;5052865;28;20499;-81
2023/06/11 09:10:56;;;;;;;11.32;9.63;;;640.70;2432.00;;;;;;5054375;28;20056;-83
2023/06/11 09:13:26;;;;;;;10.02;9.02;;;665.70;2432.00;;;;;;5054119;28;20101;-82
2023/06/11 09:15:57;;;;;;;12.43;8.98;;;665.90;2432.00;;;;;;5052558;28;20024;-82
2023/06/11 09:18:25;;;;;;;9.43;7.53;;;666.40;2432.00;;;;;;5052317;28;20037;-81
2023/06/11 09:21:01;;;;;;;10.52;8.70;;;666.40;2432.00;;;;;;5052771;28;20075;-81
2023/06/11 09:23:32;;;;;;;8.70;7.63;;;691.20;2432.00;;;;;;5052287;28;20040;-81
2023/06/11 09:26:02;;;;;;;9.87;7.20;;;691.50;2432.00;;;;;;5044548;28;20033;-79
2023/06/11 09:28:36;;;;;;;9.48;7.88;;;691.70;2432.00;;;;;;5032741;28;20034;-79
2023/06/11 09:31:03;;;;;;;10.88;9.77;;;691.70;2432.00;;;;;;5033237;28;20034;-79
2023/06/11 09:33:30;;;;;;;9.25;6.85;;;691.50;2432.00;;;;;;5032980;28;20025;-81
2023/06/11 09:35:57;;;;;;;10.82;7.25;;;691.60;2432.00;;;;;;5037813;28;20048;-81
2023/06/11 09:38:23;;;;;;;9.00;6.97;;;691.50;2432.00;;;;;;5053172;28;20100;-80
2023/06/11 09:40:55;;;;;;;9.13;7.72;;;691.60;2432.00;;;;;;5052165;28;20167;-79
2023/06/11 09:43:25;;;;;;;9.32;6.93;;;691.80;2432.00;;;;;;5051898;28;20039;-79
2023/06/11 09:45:55;;;;;;;11.23;6.53;;;691.80;2432.00;;;;;;5050762;28;20082;-80
2023/06/11 09:48:22;;;;;;;6.70;6.00;;;716.80;2432.00;;;;;;5032602;28;20044;-80
2023/06/11 09:50:52;;;;;;;8.23;5.85;;;716.90;2406.40;;;;;;5032096;28;20030;-80
2023/06/11 09:53:19;;;;;;;7.22;6.07;;;716.80;2432.00;;;;;;5032954;28;20105;-79
2023/06/11 09:55:50;;;;;;;6.40;5.55;;;691.90;2278.40;;;;;;5048765;28;20033;-80
2023/06/11 09:58:22;;;;;;;6.78;6.07;;;691.90;2304.00;;;;;;5047980;28;20032;-80
2023/06/11 10:00:58;;;;;;;7.55;6.78;;;691.70;2304.00;;;;;;5048392;28;20049;-80
2023/06/11 10:03:24;;;;;;;7.50;6.47;;;716.80;2406.40;;;;;;5050213;28;20033;-80
2023/06/11 10:05:51;;;;;;;9.27;5.88;;;717.00;2380.80;;;;;;5053028;28;20053;-81
2023/06/11 10:08:22;;;;;;;15.07;13.55;;;717.20;2432.00;;;;;;5052195;28;20035;-81
2023/06/11 10:10:55;;;;;;;13.55;10.25;;;717.50;2329.60;;;;;;5052376;28;20032;-80
2023/06/11 10:13:31;;;;;;;8.48;6.65;;;717.30;2278.40;;;;;;5051957;28;20083;-80
2023/06/11 10:16:06;;;;;;;14.18;12.77;;;717.00;2150.40;;;;;;5050908;28;20029;-79
2023/06/11 10:18:32;;;;;;;11.93;7.15;;;716.90;2227.20;;;;;;5052410;28;20025;-79
2023/06/11 10:21:03;;;;;;;8.93;6.97;;;716.90;2252.80;;;;;;5068759;28;20021;-79
2023/06/11 10:23:42;;;;;;;9.38;6.38;;;717.10;2252.80;;;;;;5068586;28;20030;-80
2023/06/11 10:26:11;;;;;;;12.65;11.40;;;716.90;2252.80;;;;;;5068484;28;20117;-79
2023/06/11 10:28:44;;;;;;;8.13;6.97;;;717.40;2227.20;;;;;;5053535;28;20052;-79
2023/06/11 10:31:10;;;;;;;8.40;6.50;;;717.00;2252.80;;;;;;5068626;28;20025;-80
2023/06/11 10:33:46;;;;;;;9.65;8.02;;;717.30;2278.40;;;;;;5070817;28;20128;-80
2023/06/11 10:36:25;;;;;;;7.90;6.38;;;717.50;2252.80;;;;;;5056924;28;20079;-80
2023/06/11 10:39:20;;;;;;;7.93;6.47;;;742.40;2252.80;;;;;;5072295;28;20047;-80
2023/06/11 10:41:45;;;;;;;6.30;5.65;;;742.60;2278.40;;;;;;5071958;28;20473;-79
2023/06/11 10:44:14;;;;;;;8.32;5.82;;;742.80;2304.00;;;;;;5055554;28;20035;-79
2023/06/11 10:46:50;;;;;;;5.63;5.03;;;742.80;2304.00;;;;;;5056492;28;20071;-81
2023/06/11 10:49:18;;;;;;;7.68;5.30;;;742.80;2227.20;;;;;;5056487;28;20021;-81
2023/06/11 10:51:47;;;;;;;6.85;6.13;;;742.80;2278.40;;;;;;5056424;28;20028;-82
2023/06/11 10:54:26;;;;;;;8.00;5.72;;;743.00;2252.80;;;;;;5056445;28;20025;-81
2023/06/11 10:56:56;;;;;;;7.18;5.63;;;743.30;2252.80;;;;;;5055374;28;20061;-80
2023/06/11 10:59:22;;;;;;;6.45;5.18;;;768.20;2201.60;;;;;;5055216;28;20056;-78
2023/06/11 11:01:53;;;;;;;6.93;5.28;;;768.40;2150.40;;;;;;5056096;28;20025;-79
2023/06/11 11:04:18;;;;;;;7.95;5.35;;;768.10;2176.00;;;;;;5045960;28;20056;-81
2023/06/11 11:06:44;;;;;;;6.47;5.30;;;768.60;2176.00;;;;;;5035248;28;20481;-78
2023/06/11 11:09:11;;;;;;;7.05;5.70;;;768.40;2150.40;;;;;;5034907;28;20124;-81
2023/06/11 11:11:38;;;;;;;7.60;5.05;;;768.20;2124.80;;;;;;5035079;28;20030;-79
2023/06/11 11:14:05;;;;;;;11.73;6.60;;;743.20;2176.00;;;;;;5034913;28;20445;-81
2023/06/11 11:16:31;;;;;;;6.40;5.50;;;768.30;2176.00;;;;;;5034965;28;20025;-79
2023/06/11 11:18:57;;;;;;;7.28;5.20;;;768.50;2176.00;;;;;;5035025;28;20074;-82
2023/06/11 11:21:29;;;;;;;6.15;5.05;;;768.40;2124.80;;;;;;5036279;28;20476;-79
2023/06/11 11:23:56;;;;;;;6.28;4.70;;;768.40;2124.80;;;;;;5034625;28;20029;-81
2023/06/11 11:26:21;;;;;;;5.90;5.10;;;768.40;2124.80;;;;;;5036060;28;20022;-81
2023/06/11 11:28:48;;;;;;;5.65;4.97;;;768.20;2099.20;;;;;;5018185;28;20030;-80
2023/06/11 11:31:18;;;;;;;5.68;4.55;;;768.10;2099.20;;;;;;5034570;28;20071;-81
2023/06/11 11:33:47;;;;;;;11.70;6.53;;;768.20;2099.20;;;;;;5036066;28;20083;-81
2023/06/11 11:36:12;;;;;;;5.70;4.78;;;768.50;2150.40;;;;;;5034338;28;20032;-82
2023/06/11 11:38:38;;;;;;;7.35;4.43;;;768.80;1996.80;;;;;;5035841;28;20108;-79
2023/06/11 11:41:09;;;;;;;5.97;4.70;;;793.60;2124.80;;;;;;5034776;28;20025;-83
2023/06/11 11:43:42;;;;;;;5.20;4.15;;;794.00;2022.40;;;;;;5033517;28;20026;-81
2023/06/11 11:46:19;;;;;;;5.32;4.78;;;794.30;1971.20;;;;;;5034293;28;20025;-81
2023/06/11 11:48:45;;;;;;;6.88;5.35;;;794.50;1996.80;;;;;;5047975;28;20052;-81
2023/06/11 11:51:13;;;;;;;5.03;3.80;;;794.40;1971.20;;;;;;5040247;28;20031;-82
2023/06/11 11:53:40;;;;;;;7.25;4.10;;;819.30;1868.80;;;;;;5050682;28;20055;-80
2023/06/11 11:56:06;;;;;;;4.88;3.72;;;794.20;1868.80;;;;;;5033934;28;20496;-80
2023/06/11 11:58:43;;;;;;;7.22;4.55;;;794.00;1894.40;;;;;;5043109;28;20029;-79
2023/06/11 12:01:21;;;;;;;5.32;4.20;;;794.30;1894.40;;;;;;5041065;28;20025;-81
2023/06/11 12:03:59;;;;;;;8.15;5.70;;;819.20;1920.00;;;;;;5038367;28;20527;-81
2023/06/11 12:06:25;;;;;;;6.82;5.03;;;819.50;1920.00;;;;;;5055045;28;20045;-81
2023/06/11 12:08:51;;;;;;;7.47;4.55;;;794.30;1971.20;;;;;;5041584;28;20064;-81